FCA425 YSCB-YMML

Flight info

Callsign FCA425
Flight time 1h 13m
Altitude 22000
Route CB Q215 TANTA Q29 ML
Aircraft SF34/M-SDFGR/S

Departure

Time 2026-05-05 18:53
Airport Canberra Airport (YSCB)

Arrival

Time 2026-05-05 20:07
Airport Melbourne Airport (YMML)
Time Latitude Longitude Altitude Speed Heading
2026-05-05 17:49 -35.30966 149.19108 1875 ft 0 kts 270°
2026-05-05 18:44 -35.30966 149.19123 1872 ft 3 kts 270°
2026-05-05 18:44 -35.30966 149.19151 1874 ft 3 kts 270°
2026-05-05 18:44 -35.30966 149.19178 1875 ft 3 kts 270°
2026-05-05 18:45 -35.30966 149.19201 1870 ft 3 kts 265°
2026-05-05 18:45 -35.30961 149.19227 1873 ft 3 kts 234°
2026-05-05 18:45 -35.30947 149.19239 1875 ft 3 kts 180°
2026-05-05 18:45 -35.30932 149.19239 1872 ft 1 kts 180°
2026-05-05 18:49 -35.30976 149.19240 1869 ft 14 kts 179°
2026-05-05 18:49 -35.31123 149.19240 1875 ft 28 kts 179°
2026-05-05 18:49 -35.31264 149.19240 1875 ft 19 kts 180°
2026-05-05 18:50 -35.31368 149.19242 1875 ft 14 kts 180°
2026-05-05 18:50 -35.31506 149.19240 1874 ft 25 kts 181°
2026-05-05 18:50 -35.31691 149.19237 1873 ft 14 kts 176°
2026-05-05 18:50 -35.31812 149.19241 1875 ft 19 kts 179°
2026-05-05 18:51 -35.31908 149.19241 1874 ft 11 kts 177°
2026-05-05 18:51 -35.31983 149.19277 1872 ft 15 kts 137°
2026-05-05 18:51 -35.32010 149.19343 1875 ft 9 kts 96°
2026-05-05 18:51 -35.31996 149.19446 1873 ft 11 kts 24°
2026-05-05 18:52 -35.31931 149.19443 1875 ft 11 kts
2026-05-05 18:52 -35.31900 149.19445 1875 ft 0 kts
2026-05-05 18:52 -35.31836 149.19445 1875 ft 32 kts 359°
2026-05-05 18:53 -35.31396 149.19443 1874 ft 93 kts 360°
2026-05-05 18:53 -35.30574 149.19442 1874 ft 141 kts 359°
2026-05-05 18:53 -35.29504 149.19459 2144 ft 160 kts
2026-05-05 18:53 -35.28389 149.19600 2637 ft 170 kts
2026-05-05 18:54 -35.27166 149.19815 3034 ft 187 kts
2026-05-05 18:54 -35.25867 149.19939 3710 ft 187 kts
2026-05-05 18:54 -35.24483 149.19987 4003 ft 207 kts
2026-05-05 18:54 -35.23072 149.19779 4605 ft 205 kts 339°
2026-05-05 18:55 -35.21922 149.18771 5113 ft 211 kts 309°
2026-05-05 18:55 -35.21198 149.17099 5178 ft 231 kts 285°
2026-05-05 18:55 -35.21066 149.15173 5620 ft 230 kts 263°
2026-05-05 18:55 -35.21399 149.13255 5928 ft 232 kts 250°
2026-05-05 18:56 -35.22339 149.11617 5994 ft 245 kts 218°
2026-05-05 18:56 -35.23898 149.10847 6136 ft 249 kts 187°
2026-05-05 18:56 -35.25652 149.10813 6107 ft 255 kts 181°
2026-05-05 18:56 -35.27429 149.10795 6186 ft 256 kts 180°
2026-05-05 18:57 -35.29231 149.10831 6071 ft 263 kts 178°
2026-05-05 18:57 -35.31045 149.10939 6196 ft 256 kts 178°
2026-05-05 18:57 -35.32771 149.11045 6698 ft 245 kts 178°
2026-05-05 18:57 -35.34497 149.11161 6856 ft 250 kts 177°
2026-05-05 18:58 -35.36235 149.11256 7104 ft 250 kts 182°
2026-05-05 18:58 -35.37802 149.10759 7861 ft 225 kts 213°
2026-05-05 18:58 -35.38699 149.09383 8945 ft 196 kts 253°
2026-05-05 18:58 -35.39107 149.07916 10017 ft 169 kts 234°
2026-05-05 18:59 -35.39873 149.06976 10978 ft 147 kts 221°
2026-05-05 18:59 -35.40695 149.06057 11228 ft 176 kts 223°
2026-05-05 18:59 -35.41684 149.04949 11270 ft 211 kts 222°
2026-05-05 18:59 -35.42853 149.03664 11284 ft 239 kts 222°
2026-05-05 19:00 -35.44137 149.02240 11304 ft 257 kts 222°
2026-05-05 19:00 -35.45493 149.00738 11327 ft 267 kts 222°
2026-05-05 19:00 -35.46890 148.99188 11348 ft 273 kts 222°
2026-05-05 19:00 -35.48290 148.97635 11380 ft 276 kts 222°
2026-05-05 19:01 -35.49714 148.96054 11468 ft 276 kts 222°
2026-05-05 19:01 -35.51141 148.94470 11527 ft 277 kts 223°
2026-05-05 19:01 -35.52573 148.92876 11593 ft 278 kts 222°
2026-05-05 19:01 -35.54012 148.91277 11722 ft 277 kts 222°
2026-05-05 19:02 -35.55432 148.89699 11939 ft 274 kts 222°
2026-05-05 19:02 -35.56839 148.88133 12142 ft 273 kts 222°
2026-05-05 19:02 -35.58250 148.86561 12346 ft 273 kts 222°
2026-05-05 19:02 -35.59655 148.84996 12548 ft 273 kts 222°
2026-05-05 19:03 -35.61028 148.83464 12869 ft 271 kts 222°
2026-05-05 19:03 -35.62430 148.81902 13080 ft 273 kts 221°
2026-05-05 19:03 -35.63839 148.80331 13285 ft 274 kts 222°
2026-05-05 19:03 -35.65254 148.78750 13492 ft 275 kts 222°
2026-05-05 19:04 -35.66673 148.77167 13703 ft 276 kts 222°
2026-05-05 19:04 -35.68094 148.75577 13915 ft 277 kts 221°
2026-05-05 19:04 -35.69522 148.73981 14120 ft 278 kts 221°
2026-05-05 19:04 -35.70953 148.72382 14306 ft 278 kts 221°
2026-05-05 19:05 -35.72368 148.70798 14486 ft 279 kts 221°
2026-05-05 19:05 -35.73803 148.69191 14676 ft 279 kts 221°
2026-05-05 19:05 -35.75239 148.67582 14866 ft 279 kts 221°
2026-05-05 19:05 -35.76675 148.65973 15057 ft 279 kts 222°
2026-05-05 19:06 -35.78114 148.64359 15251 ft 279 kts 222°
2026-05-05 19:06 -35.79549 148.62750 15443 ft 279 kts 222°
2026-05-05 19:06 -35.80981 148.61141 15627 ft 279 kts 222°
2026-05-05 19:06 -35.82417 148.59530 15836 ft 279 kts 222°
2026-05-05 19:07 -35.83850 148.57920 16030 ft 279 kts 222°
2026-05-05 19:07 -35.85260 148.56334 16227 ft 278 kts 222°
2026-05-05 19:07 -35.86686 148.54729 16427 ft 278 kts 222°
2026-05-05 19:07 -35.88111 148.53127 16628 ft 277 kts 222°
2026-05-05 19:08 -35.89532 148.51525 16829 ft 277 kts 223°
2026-05-05 19:08 -35.90949 148.49922 17028 ft 276 kts 223°
2026-05-05 19:08 -35.92365 148.48313 17235 ft 276 kts 223°
2026-05-05 19:08 -35.93772 148.46708 17431 ft 276 kts 223°
2026-05-05 19:09 -35.95181 148.45094 17618 ft 277 kts 223°
2026-05-05 19:09 -35.96593 148.43470 17718 ft 279 kts 224°
2026-05-05 19:09 -35.97997 148.41847 17829 ft 281 kts 224°
2026-05-05 19:09 -35.99423 148.40192 17929 ft 282 kts 224°
2026-05-05 19:10 -36.00851 148.38528 18032 ft 282 kts 224°
2026-05-05 19:10 -36.02276 148.36860 18128 ft 282 kts 224°
2026-05-05 19:10 -36.03700 148.35188 18242 ft 282 kts 224°
2026-05-05 19:10 -36.05120 148.33512 18349 ft 283 kts 225°
2026-05-05 19:11 -36.06540 148.31829 18459 ft 282 kts 225°
2026-05-05 19:11 -36.07934 148.30170 18553 ft 282 kts 225°
2026-05-05 19:11 -36.09345 148.28484 18646 ft 282 kts 225°
2026-05-05 19:11 -36.10752 148.26796 18739 ft 282 kts 225°
2026-05-05 19:12 -36.12159 148.25100 18831 ft 282 kts 225°
2026-05-05 19:12 -36.13567 148.23398 18919 ft 282 kts 225°
2026-05-05 19:12 -36.14966 148.21700 19012 ft 282 kts 225°
2026-05-05 19:12 -36.16363 148.19999 19106 ft 282 kts 226°
2026-05-05 19:13 -36.17758 148.18293 19203 ft 282 kts 226°
2026-05-05 19:13 -36.19151 148.16582 19296 ft 282 kts 226°
2026-05-05 19:13 -36.20541 148.14868 19388 ft 282 kts 226°
2026-05-05 19:13 -36.21925 148.13154 19490 ft 282 kts 226°
2026-05-05 19:14 -36.23295 148.11452 19591 ft 282 kts 226°
2026-05-05 19:14 -36.24677 148.09728 19672 ft 282 kts 226°
2026-05-05 19:14 -36.26058 148.07999 19770 ft 282 kts 226°
2026-05-05 19:14 -36.27434 148.06269 19866 ft 283 kts 226°
2026-05-05 19:15 -36.28813 148.04528 19962 ft 283 kts 227°
2026-05-05 19:15 -36.30190 148.02783 20062 ft 283 kts 227°
2026-05-05 19:15 -36.31566 148.01035 20162 ft 283 kts 227°
2026-05-05 19:15 -36.32936 147.99287 20260 ft 283 kts 227°
2026-05-05 19:16 -36.34312 147.97522 20315 ft 285 kts 227°
2026-05-05 19:16 -36.35675 147.95769 20338 ft 287 kts 227°
2026-05-05 19:16 -36.37061 147.93978 20368 ft 288 kts 227°
2026-05-05 19:16 -36.38447 147.92179 20394 ft 289 kts 228°
2026-05-05 19:17 -36.39834 147.90372 20418 ft 289 kts 228°
2026-05-05 19:17 -36.41218 147.88564 20441 ft 290 kts 228°
2026-05-05 19:17 -36.42604 147.86747 20469 ft 290 kts 228°
2026-05-05 19:17 -36.43986 147.84926 20492 ft 290 kts 228°
2026-05-05 19:18 -36.45367 147.83098 20520 ft 290 kts 228°
2026-05-05 19:18 -36.46746 147.81265 20546 ft 290 kts 228°
2026-05-05 19:18 -36.48124 147.79426 20514 ft 293 kts 229°
2026-05-05 19:18 -36.49502 147.77578 20394 ft 296 kts 229°
2026-05-05 19:19 -36.50899 147.75693 20314 ft 297 kts 229°
2026-05-05 19:19 -36.52291 147.73808 20293 ft 295 kts 229°
2026-05-05 19:19 -36.53679 147.71920 20279 ft 294 kts 229°
2026-05-05 19:19 -36.55052 147.70046 20265 ft 294 kts 229°
2026-05-05 19:20 -36.56421 147.68167 20259 ft 291 kts 231°
2026-05-05 19:20 -36.57383 147.65993 20262 ft 287 kts 253°
2026-05-05 19:20 -36.58009 147.63672 20260 ft 287 kts 248°
2026-05-05 19:20 -36.58966 147.61483 20260 ft 289 kts 239°
2026-05-05 19:21 -36.60046 147.59382 20260 ft 289 kts 240°
2026-05-05 19:21 -36.61034 147.57207 20259 ft 289 kts 244°
2026-05-05 19:21 -36.61967 147.54991 20260 ft 289 kts 243°
2026-05-05 19:21 -36.62966 147.52814 20259 ft 290 kts 242°
2026-05-05 19:22 -36.63953 147.50628 20259 ft 289 kts 243°
2026-05-05 19:22 -36.64914 147.48425 20255 ft 290 kts 243°
2026-05-05 19:22 -36.65903 147.46241 20256 ft 289 kts 242°
2026-05-05 19:22 -36.66882 147.44045 20255 ft 290 kts 243°
2026-05-05 19:23 -36.67842 147.41875 20253 ft 290 kts 243°
2026-05-05 19:23 -36.68825 147.39682 20254 ft 290 kts 243°
2026-05-05 19:23 -36.69801 147.37487 20252 ft 289 kts 243°
2026-05-05 19:23 -36.70773 147.35295 20251 ft 290 kts 243°
2026-05-05 19:24 -36.71750 147.33105 20256 ft 289 kts 243°
2026-05-05 19:24 -36.72724 147.30911 20258 ft 289 kts 243°
2026-05-05 19:24 -36.73697 147.28711 20258 ft 290 kts 243°
2026-05-05 19:24 -36.74678 147.26510 20255 ft 290 kts 243°
2026-05-05 19:25 -36.75641 147.24334 20252 ft 290 kts 243°
2026-05-05 19:25 -36.76616 147.22132 20252 ft 290 kts 243°
2026-05-05 19:25 -36.77589 147.19938 20254 ft 290 kts 243°
2026-05-05 19:25 -36.78566 147.17729 20255 ft 290 kts 243°
2026-05-05 19:26 -36.79539 147.15526 20254 ft 290 kts 243°
2026-05-05 19:26 -36.80513 147.13323 20256 ft 290 kts 243°
2026-05-05 19:26 -36.81486 147.11116 20254 ft 290 kts 243°
2026-05-05 19:26 -36.82461 147.08911 20254 ft 290 kts 243°
2026-05-05 19:27 -36.83431 147.06707 20257 ft 290 kts 243°
2026-05-05 19:27 -36.84404 147.04504 20256 ft 289 kts 243°
2026-05-05 19:27 -36.85359 147.02333 20257 ft 289 kts 244°
2026-05-05 19:27 -36.86327 147.00132 20259 ft 289 kts 244°
2026-05-05 19:28 -36.87297 146.97929 20261 ft 290 kts 244°
2026-05-05 19:28 -36.88268 146.95719 20260 ft 290 kts 244°
2026-05-05 19:28 -36.89237 146.93510 20260 ft 290 kts 244°
2026-05-05 19:28 -36.90207 146.91301 20259 ft 290 kts 244°
2026-05-05 19:29 -36.91174 146.89097 20261 ft 290 kts 244°
2026-05-05 19:29 -36.92145 146.86880 20258 ft 290 kts 244°
2026-05-05 19:29 -36.93101 146.84697 20259 ft 290 kts 244°
2026-05-05 19:29 -36.94070 146.82486 20264 ft 290 kts 244°
2026-05-05 19:30 -36.95036 146.80276 20268 ft 290 kts 244°
2026-05-05 19:30 -36.96002 146.78065 20269 ft 290 kts 244°
2026-05-05 19:30 -36.96970 146.75852 20268 ft 290 kts 244°
2026-05-05 19:30 -36.97934 146.73642 20265 ft 290 kts 244°
2026-05-05 19:31 -36.98898 146.71434 20256 ft 289 kts 244°
2026-05-05 19:31 -36.99861 146.69221 20256 ft 289 kts 244°
2026-05-05 19:31 -37.00822 146.67016 20256 ft 289 kts 244°
2026-05-05 19:31 -37.01772 146.64834 20257 ft 290 kts 244°
2026-05-05 19:32 -37.02736 146.62620 20257 ft 290 kts 244°
2026-05-05 19:32 -37.03697 146.60407 20258 ft 290 kts 244°
2026-05-05 19:32 -37.04661 146.58189 20256 ft 290 kts 244°
2026-05-05 19:32 -37.05624 146.55971 20257 ft 290 kts 244°
2026-05-05 19:33 -37.06588 146.53750 20256 ft 290 kts 244°
2026-05-05 19:33 -37.07550 146.51528 20255 ft 290 kts 244°
2026-05-05 19:33 -37.08511 146.49314 20254 ft 290 kts 244°
2026-05-05 19:33 -37.09472 146.47094 20251 ft 290 kts 244°
2026-05-05 19:34 -37.10421 146.44897 20250 ft 291 kts 244°
2026-05-05 19:34 -37.11384 146.42671 20251 ft 290 kts 244°
2026-05-05 19:34 -37.12349 146.40441 20251 ft 291 kts 244°
2026-05-05 19:35 -37.14270 146.35988 20248 ft 291 kts 244°
2026-05-05 19:35 -37.15231 146.33761 20246 ft 290 kts 244°
2026-05-05 19:35 -37.16187 146.31542 20250 ft 289 kts 245°
2026-05-05 19:35 -37.17143 146.29319 20242 ft 290 kts 245°
2026-05-05 19:36 -37.18100 146.27099 20242 ft 290 kts 245°
2026-05-05 19:36 -37.19056 146.24873 20242 ft 290 kts 245°
2026-05-05 19:36 -37.20000 146.22677 20242 ft 290 kts 245°
2026-05-05 19:36 -37.20957 146.20449 20245 ft 290 kts 245°
2026-05-05 19:37 -37.21913 146.18220 20238 ft 290 kts 245°
2026-05-05 19:37 -37.22871 146.15987 20239 ft 290 kts 245°
2026-05-05 19:37 -37.23827 146.13757 20239 ft 291 kts 245°
2026-05-05 19:37 -37.24781 146.11525 20239 ft 290 kts 245°
2026-05-05 19:38 -37.25739 146.09292 20237 ft 291 kts 245°
2026-05-05 19:38 -37.26681 146.07085 20236 ft 291 kts 245°
2026-05-05 19:38 -37.27640 146.04843 20237 ft 291 kts 245°
2026-05-05 19:38 -37.28593 146.02611 20238 ft 290 kts 245°
2026-05-05 19:39 -37.29548 146.00370 20238 ft 290 kts 245°
2026-05-05 19:39 -37.30500 145.98144 20236 ft 290 kts 245°
2026-05-05 19:39 -37.31453 145.95905 20236 ft 290 kts 245°
2026-05-05 19:39 -37.32406 145.93667 20235 ft 290 kts 245°
2026-05-05 19:40 -37.33358 145.91431 20235 ft 290 kts 245°
2026-05-05 19:40 -37.34306 145.89201 20236 ft 290 kts 245°
2026-05-05 19:40 -37.35242 145.86997 20233 ft 290 kts 245°
2026-05-05 19:40 -37.36197 145.84752 20234 ft 290 kts 245°
2026-05-05 19:41 -37.37144 145.82519 20231 ft 291 kts 245°
2026-05-05 19:41 -37.38094 145.80276 20231 ft 290 kts 245°
2026-05-05 19:41 -37.39045 145.78036 20235 ft 291 kts 245°
2026-05-05 19:41 -37.39996 145.75791 20231 ft 291 kts 246°
2026-05-05 19:42 -37.40944 145.73546 20229 ft 291 kts 246°
2026-05-05 19:42 -37.41902 145.71282 20028 ft 297 kts 245°
2026-05-05 19:42 -37.42876 145.68976 19789 ft 300 kts 245°
2026-05-05 19:42 -37.43847 145.66680 19556 ft 302 kts 245°
2026-05-05 19:43 -37.44830 145.64348 19322 ft 302 kts 245°
2026-05-05 19:43 -37.45896 145.62057 19085 ft 304 kts 238°
2026-05-05 19:43 -37.47224 145.59977 18857 ft 306 kts 233°
2026-05-05 19:43 -37.48561 145.57895 18627 ft 305 kts 236°
2026-05-05 19:44 -37.49786 145.55719 18381 ft 304 kts 239°
2026-05-05 19:44 -37.51003 145.53537 18116 ft 305 kts 237°
2026-05-05 19:44 -37.52294 145.51392 17696 ft 309 kts 236°
2026-05-05 19:44 -37.53558 145.49200 17283 ft 310 kts 238°
2026-05-05 19:45 -37.54542 145.47466 16962 ft 311 kts 237°
2026-05-05 19:45 -37.55829 145.45271 16572 ft 312 kts 237°
2026-05-05 19:45 -37.57115 145.43068 16170 ft 312 kts 237°
2026-05-05 19:45 -37.58384 145.40851 15782 ft 312 kts 237°
2026-05-05 19:46 -37.59669 145.38645 15388 ft 312 kts 237°
2026-05-05 19:46 -37.60946 145.36438 15001 ft 311 kts 237°
2026-05-05 19:46 -37.62217 145.34233 14620 ft 311 kts 237°
2026-05-05 19:46 -37.63490 145.32031 14243 ft 310 kts 237°
2026-05-05 19:47 -37.64740 145.29862 13865 ft 309 kts 237°
2026-05-05 19:47 -37.65999 145.27680 13446 ft 307 kts 237°
2026-05-05 19:47 -37.67019 145.25370 13025 ft 299 kts 246°
2026-05-05 19:47 -37.68297 145.23292 12618 ft 302 kts 228°
2026-05-05 19:48 -37.69742 145.21385 12210 ft 299 kts 233°
2026-05-05 19:48 -37.70941 145.19268 11800 ft 295 kts 240°
2026-05-05 19:48 -37.72162 145.17199 11405 ft 296 kts 226°
2026-05-05 19:48 -37.73939 145.15875 11012 ft 301 kts 202°
2026-05-05 19:49 -37.75974 145.15216 10628 ft 302 kts 195°
2026-05-05 19:49 -37.77332 145.14882 10375 ft 301 kts 194°
2026-05-05 19:49 -37.79942 145.14302 9791 ft 261 kts 193°
2026-05-05 19:49 -37.81646 145.13954 9257 ft 241 kts 193°
2026-05-05 19:50 -37.83288 145.13624 8730 ft 237 kts 193°
2026-05-05 19:50 -37.84905 145.13301 8219 ft 234 kts 193°
2026-05-05 19:50 -37.86510 145.12987 7714 ft 232 kts 193°
2026-05-05 19:50 -37.88096 145.12677 7217 ft 230 kts 193°
2026-05-05 19:51 -37.89669 145.12367 6728 ft 228 kts 193°
2026-05-05 19:51 -37.91226 145.12059 6215 ft 227 kts 193°
2026-05-05 19:51 -37.92684 145.11490 5707 ft 220 kts 216°
2026-05-05 19:51 -37.93638 145.10073 5212 ft 211 kts 250°
2026-05-05 19:52 -37.93834 145.08269 4706 ft 207 kts 272°
2026-05-05 19:52 -37.93756 145.06454 4192 ft 206 kts 275°
2026-05-05 19:52 -37.93657 145.04654 3684 ft 204 kts 275°
2026-05-05 19:52 -37.93475 145.02898 3271 ft 197 kts 290°
2026-05-05 19:53 -37.92629 145.01623 3202 ft 190 kts 327°
2026-05-05 19:53 -37.91438 145.00921 3199 ft 188 kts 334°
2026-05-05 19:53 -37.90232 145.00273 3192 ft 188 kts 334°
2026-05-05 19:53 -37.89043 144.99639 3189 ft 188 kts 335°
2026-05-05 19:54 -37.87842 144.99001 3191 ft 187 kts 335°
2026-05-05 19:54 -37.86574 144.98686 3197 ft 189 kts 357°
2026-05-05 19:54 -37.85254 144.98753 3195 ft 190 kts 359°
2026-05-05 19:54 -37.83947 144.98831 3194 ft 191 kts 360°
2026-05-05 19:55 -37.82621 144.98914 3196 ft 191 kts
2026-05-05 19:55 -37.81296 144.98996 3196 ft 191 kts 360°
2026-05-05 19:55 -37.79969 144.99079 3196 ft 191 kts 360°
2026-05-05 19:55 -37.78643 144.99159 3198 ft 191 kts
2026-05-05 19:56 -37.77337 144.99217 3197 ft 189 kts 355°
2026-05-05 19:56 -37.76146 144.98639 3204 ft 185 kts 315°
2026-05-05 19:56 -37.75579 144.97227 3212 ft 185 kts 275°
2026-05-05 19:56 -37.75905 144.95684 3218 ft 187 kts 235°
2026-05-05 19:57 -37.76979 144.94767 3220 ft 192 kts 196°
2026-05-05 19:57 -37.77854 144.94595 3215 ft 193 kts 188°
2026-05-05 19:57 -37.79656 144.94839 3215 ft 197 kts 171°
2026-05-05 19:57 -37.81000 144.95184 3215 ft 198 kts 171°
2026-05-05 19:58 -37.82350 144.95539 3213 ft 198 kts 171°
2026-05-05 19:58 -37.83656 144.96022 3213 ft 199 kts 163°
2026-05-05 19:58 -37.84963 144.96602 3210 ft 199 kts 163°
2026-05-05 19:58 -37.86271 144.97189 3208 ft 199 kts 163°
2026-05-05 19:59 -37.87578 144.97775 3204 ft 200 kts 163°
2026-05-05 19:59 -37.88876 144.98380 3204 ft 198 kts 156°
2026-05-05 19:59 -37.89848 144.99603 3205 ft 202 kts 115°
2026-05-05 19:59 -37.90002 145.01337 3204 ft 201 kts 74°
2026-05-05 20:00 -37.89282 145.02794 3208 ft 195 kts 34°
2026-05-05 20:00 -37.88048 145.03328 3207 ft 188 kts 354°
2026-05-05 20:00 -37.86884 145.02764 3211 ft 182 kts 320°
2026-05-05 20:00 -37.85925 145.01721 3211 ft 182 kts 316°
2026-05-05 20:01 -37.84988 145.00652 3209 ft 183 kts 316°
2026-05-05 20:01 -37.84047 144.99566 3212 ft 184 kts 316°
2026-05-05 20:01 -37.83105 144.98472 3212 ft 184 kts 316°
2026-05-05 20:01 -37.82161 144.97373 3213 ft 183 kts 315°
2026-05-05 20:02 -37.81588 144.95985 3216 ft 181 kts 277°
2026-05-05 20:02 -37.81614 144.94388 3214 ft 182 kts 267°
2026-05-05 20:02 -37.81700 144.92785 3069 ft 189 kts 267°
2026-05-05 20:02 -37.81796 144.91114 2869 ft 191 kts 267°
2026-05-05 20:03 -37.81891 144.89478 2770 ft 179 kts 267°
2026-05-05 20:03 -37.81725 144.87992 2738 ft 171 kts 300°
2026-05-05 20:03 -37.80890 144.86954 2723 ft 170 kts 321°
2026-05-05 20:03 -37.79937 144.86076 2704 ft 169 kts 327°
2026-05-05 20:04 -37.78788 144.85648 2444 ft 182 kts 355°
2026-05-05 20:04 -37.77521 144.85657 2015 ft 175 kts 356°
2026-05-05 20:04 -37.76329 144.85599 1884 ft 166 kts 352°
2026-05-05 20:04 -37.75183 144.85487 1888 ft 169 kts 351°
2026-05-05 20:05 -37.74058 144.85302 1681 ft 160 kts 347°
2026-05-05 20:05 -37.72992 144.84973 1324 ft 155 kts 343°
2026-05-05 20:05 -37.71953 144.84711 1069 ft 150 kts 350°
2026-05-05 20:05 -37.70898 144.84512 858 ft 158 kts 351°
2026-05-05 20:06 -37.69892 144.84335 642 ft 140 kts 352°
2026-05-05 20:06 -37.68920 144.84154 478 ft 143 kts 351°
2026-05-05 20:06 -37.67951 144.83982 350 ft 133 kts 351°
2026-05-05 20:06 -37.67176 144.83838 377 ft 86 kts 351°
2026-05-05 20:07 -37.66761 144.83742 391 ft 57 kts 338°
2026-05-05 20:07 -37.66584 144.83722 397 ft 17 kts 50°
2026-05-05 20:07 -37.66503 144.83870 400 ft 13 kts 90°
2026-05-05 20:07 -37.66582 144.83945 397 ft 14 kts 175°
2026-05-05 20:08 -37.66705 144.83981 391 ft 12 kts 137°
2026-05-05 20:08 -37.66717 144.84074 390 ft 12 kts 85°
2026-05-05 20:08 -37.66756 144.84169 389 ft 12 kts 138°
2026-05-05 20:08 -37.66827 144.84199 386 ft 9 kts 172°
2026-05-05 20:09 -37.66908 144.84215 384 ft 10 kts 172°
2026-05-05 20:09 -37.67000 144.84232 381 ft 15 kts 171°
2026-05-05 20:09 -37.67092 144.84249 379 ft 14 kts 171°
2026-05-05 20:09 -37.67182 144.84271 378 ft 17 kts 154°
2026-05-05 20:10 -37.67202 144.84360 379 ft 13 kts 84°
2026-05-05 20:10 -37.67201 144.84457 380 ft 12 kts 104°
2026-05-05 20:10 -37.67211 144.84531 381 ft 3 kts 82°
2026-05-05 20:10 -37.67218 144.84556 381 ft 7 kts 142°
2026-05-05 20:11 -37.67274 144.84566 380 ft 3 kts 172°
2026-05-05 20:11 -37.67280 144.84567 380 ft 0 kts 172°